Aeroporto :
LOGIN :

Iscrizione | Disclaimer

   EN    FR    IT 

 










Sommario :    VFR   VFR Marginale   IFR   IFR Intensivo   IFR Molto Intensivo
Visibilità : 
Base nubi : 
>= 8 km
>= 3000ft
5 / 8 km
1000 / 3000 ft
1500m / 5 km
500 / 1000 ft
800 / 1500m
200 / 500 ft
< 800m
< 200 ft
Simboli :   Temporali  Nebbia  Neve Forte  Precipitazioni Forti  Vento > 20 kt
SIGMETs :   Varie  Temporali  Ghiacco  Turbolenza  Onda orograficha  Ceneri Vulcaniche






- Altitudine del aeroporto : 32 ft
- Codice IATA : LKZ


EGUL - RAF Lakenheath

ULTIMO METAR :
  • 220956Z AUTO 23005KT 9999 OVC042 10/09 A3023 RMK AO2 SLP240 T01010089 $

METARs OBSOLETI :
  • 220856Z AUTO 21004KT 9999 OVC041 09/08 A3023 RMK AO2 SLP240 60000 T00850080 52013 $
  • 220756Z AUTO 00000KT 9999 OVC039 08/07 A3021 RMK AO2 DZB31E36 SLP234 P0000 T00750072 $

TAF AMD TAF EGUL
Valido dal 22 a 08 ore il 23 a 11 ore UTC


220805Z 2208/2311 VRB06KT 9999 SCT020 BKN030 QNH3018INS
BECMG 2209/2210 24012KT 9999 FEW020 SCT030 QNH3020INS
BECMG 2219/2220 18006KT 9999 FEW030 BKN100 QNH2999INS TX12/2214Z TN07/2305Z



MetMap, La meteo Aeronautica in un colpo d'occhio ! - Copyright ORBIFLY Dicembre 2007 - Disclaimer

ORBIFLY MET'MAP TEAM :

Programmazione e sviluppo : Alexandra Zaïnal
Concezione e sviluppo : Baudouin d'Aumeries
Co-Programmazione e sviluppo : Marc-Olivier Méhu
Supporto tecnico e logistico : Manuel Goepfert
Aiuto per la traduzione : Arnaldo La Scala

Contatto : metmap@orbifly.com




FONTI E CREDITI :

   NOAA